sensor_id;sensor_type;location;lat;lon;timestamp;pressure;altitude;pressure_sealevel;temperature;humidity
66430;BME280;53242;51.694;10.006;2022-12-17T00:00:25;100132.69;;;-5.21;74.90
66430;BME280;53242;51.694;10.006;2022-12-17T00:03:09;100133.66;;;-5.24;75.09
66430;BME280;53242;51.694;10.006;2022-12-17T00:05:51;100132.50;;;-5.36;75.13
66430;BME280;53242;51.694;10.006;2022-12-17T00:08:32;100132.16;;;-5.28;74.70
66430;BME280;53242;51.694;10.006;2022-12-17T00:11:13;100132.97;;;-5.28;75.33
66430;BME280;53242;51.694;10.006;2022-12-17T00:13:54;100132.59;;;-5.37;75.20
66430;BME280;53242;51.694;10.006;2022-12-17T00:16:35;100136.53;;;-5.30;74.89
66430;BME280;53242;51.694;10.006;2022-12-17T00:19:15;100141.09;;;-5.35;75.05
66430;BME280;53242;51.694;10.006;2022-12-17T00:21:56;100146.75;;;-5.46;74.89
66430;BME280;53242;51.694;10.006;2022-12-17T00:24:37;100151.28;;;-5.51;75.02
66430;BME280;53242;51.694;10.006;2022-12-17T00:27:18;100143.72;;;-5.54;75.12
66430;BME280;53242;51.694;10.006;2022-12-17T00:29:59;100150.53;;;-5.53;75.25
66430;BME280;53242;51.694;10.006;2022-12-17T00:32:40;100158.38;;;-5.56;74.79
66430;BME280;53242;51.694;10.006;2022-12-17T00:35:21;100154.31;;;-5.78;75.46
66430;BME280;53242;51.694;10.006;2022-12-17T00:38:02;100163.09;;;-5.65;75.34
66430;BME280;53242;51.694;10.006;2022-12-17T00:40:43;100157.78;;;-5.62;74.34
66430;BME280;53242;51.694;10.006;2022-12-17T00:43:24;100167.69;;;-5.71;74.27
66430;BME280;53242;51.694;10.006;2022-12-17T00:46:05;100168.81;;;-5.77;74.58
66430;BME280;53242;51.694;10.006;2022-12-17T00:48:46;100167.25;;;-5.62;74.22
66430;BME280;53242;51.694;10.006;2022-12-17T00:51:27;100175.03;;;-5.64;73.78
66430;BME280;53242;51.694;10.006;2022-12-17T00:54:09;100177.63;;;-5.64;73.84
66430;BME280;53242;51.694;10.006;2022-12-17T00:56:50;100179.34;;;-5.64;73.93
66430;BME280;53242;51.694;10.006;2022-12-17T00:59:31;100176.09;;;-5.68;74.41
66430;BME280;53242;51.694;10.006;2022-12-17T01:02:12;100176.09;;;-5.68;74.22
66430;BME280;53242;51.694;10.006;2022-12-17T01:04:54;100177.91;;;-5.70;75.40
66430;BME280;53242;51.694;10.006;2022-12-17T01:07:35;100182.00;;;-5.66;74.29
66430;BME280;53242;51.694;10.006;2022-12-17T01:10:16;100180.03;;;-5.97;75.36
66430;BME280;53242;51.694;10.006;2022-12-17T01:12:57;100176.38;;;-5.74;74.74
66430;BME280;53242;51.694;10.006;2022-12-17T01:15:38;100189.69;;;-5.83;74.47
66430;BME280;53242;51.694;10.006;2022-12-17T01:18:19;100192.09;;;-5.80;73.88
66430;BME280;53242;51.694;10.006;2022-12-17T01:21:00;100190.09;;;-5.92;74.46
66430;BME280;53242;51.694;10.006;2022-12-17T01:23:41;100196.56;;;-5.84;73.93
66430;BME280;53242;51.694;10.006;2022-12-17T01:26:22;100199.03;;;-5.82;73.56
66430;BME280;53242;51.694;10.006;2022-12-17T01:29:03;100194.97;;;-5.86;73.20
66430;BME280;53242;51.694;10.006;2022-12-17T01:31:44;100208.03;;;-5.91;72.91
66430;BME280;53242;51.694;10.006;2022-12-17T01:34:25;100210.22;;;-6.01;73.67
66430;BME280;53242;51.694;10.006;2022-12-17T01:37:06;100217.38;;;-6.07;73.46
66430;BME280;53242;51.694;10.006;2022-12-17T01:39:48;100223.56;;;-6.12;73.61
66430;BME280;53242;51.694;10.006;2022-12-17T01:42:39;100223.34;;;-6.07;72.98
66430;BME280;53242;51.694;10.006;2022-12-17T01:45:21;100216.97;;;-5.98;72.88
66430;BME280;53242;51.694;10.006;2022-12-17T01:48:03;100234.38;;;-6.43;74.86
66430;BME280;53242;51.694;10.006;2022-12-17T01:50:51;100231.06;;;-6.45;74.65
66430;BME280;53242;51.694;10.006;2022-12-17T01:53:36;100240.34;;;-6.23;75.00
66430;BME280;53242;51.694;10.006;2022-12-17T01:56:21;100234.59;;;-6.09;74.80
66430;BME280;53242;51.694;10.006;2022-12-17T01:59:05;100229.81;;;-5.98;74.84
66430;BME280;53242;51.694;10.006;2022-12-17T02:01:47;100232.38;;;-5.98;73.72
66430;BME280;53242;51.694;10.006;2022-12-17T02:04:28;100227.06;;;-5.95;73.27
66430;BME280;53242;51.694;10.006;2022-12-17T02:10:23;100233.16;;;-6.15;74.21
66430;BME280;53242;51.694;10.006;2022-12-17T02:13:18;100235.38;;;-6.07;74.88
66430;BME280;53242;51.694;10.006;2022-12-17T02:16:14;100234.88;;;-6.16;75.46
66430;BME280;53242;51.694;10.006;2022-12-17T02:19:02;100240.44;;;-6.06;75.12
66430;BME280;53242;51.694;10.006;2022-12-17T02:21:49;100236.06;;;-6.23;75.04
66430;BME280;53242;51.694;10.006;2022-12-17T02:24:41;100238.50;;;-6.20;73.92
66430;BME280;53242;51.694;10.006;2022-12-17T02:27:24;100237.25;;;-6.11;74.43
66430;BME280;53242;51.694;10.006;2022-12-17T02:30:06;100244.47;;;-6.19;73.77
66430;BME280;53242;51.694;10.006;2022-12-17T02:32:49;100244.19;;;-6.13;72.77
66430;BME280;53242;51.694;10.006;2022-12-17T02:35:41;100248.06;;;-6.23;72.02
66430;BME280;53242;51.694;10.006;2022-12-17T02:38:26;100246.25;;;-6.40;72.59
66430;BME280;53242;51.694;10.006;2022-12-17T02:41:14;100258.34;;;-6.42;73.51
66430;BME280;53242;51.694;10.006;2022-12-17T02:43:58;100249.38;;;-6.34;73.31
66430;BME280;53242;51.694;10.006;2022-12-17T02:46:40;100250.53;;;-6.60;73.49
66430;BME280;53242;51.694;10.006;2022-12-17T02:49:22;100254.25;;;-6.67;74.36
66430;BME280;53242;51.694;10.006;2022-12-17T02:52:03;100248.69;;;-6.77;74.85
66430;BME280;53242;51.694;10.006;2022-12-17T02:54:44;100249.25;;;-6.70;74.80
66430;BME280;53242;51.694;10.006;2022-12-17T02:57:25;100253.00;;;-6.58;73.66
66430;BME280;53242;51.694;10.006;2022-12-17T03:00:08;100258.38;;;-6.44;71.94
66430;BME280;53242;51.694;10.006;2022-12-17T03:02:49;100264.41;;;-6.64;73.15
66430;BME280;53242;51.694;10.006;2022-12-17T03:05:30;100263.75;;;-6.69;73.69
66430;BME280;53242;51.694;10.006;2022-12-17T03:08:13;100261.81;;;-6.64;73.41
66430;BME280;53242;51.694;10.006;2022-12-17T03:10:54;100266.09;;;-6.65;72.82
66430;BME280;53242;51.694;10.006;2022-12-17T03:13:35;100270.56;;;-6.89;74.00
66430;BME280;53242;51.694;10.006;2022-12-17T03:16:17;100280.13;;;-6.72;73.96
66430;BME280;53242;51.694;10.006;2022-12-17T03:18:58;100285.97;;;-6.68;72.72
66430;BME280;53242;51.694;10.006;2022-12-17T03:21:39;100284.94;;;-6.64;72.87
66430;BME280;53242;51.694;10.006;2022-12-17T03:24:20;100292.19;;;-6.74;72.16
66430;BME280;53242;51.694;10.006;2022-12-17T03:27:01;100300.44;;;-6.67;71.98
66430;BME280;53242;51.694;10.006;2022-12-17T03:29:41;100296.34;;;-6.92;73.18
66430;BME280;53242;51.694;10.006;2022-12-17T03:32:22;100295.72;;;-6.77;73.00
66430;BME280;53242;51.694;10.006;2022-12-17T03:35:03;100295.00;;;-6.80;72.58
66430;BME280;53242;51.694;10.006;2022-12-17T03:37:44;100300.31;;;-7.05;73.86
66430;BME280;53242;51.694;10.006;2022-12-17T03:40:25;100288.31;;;-7.05;73.80
66430;BME280;53242;51.694;10.006;2022-12-17T03:43:07;100298.97;;;-6.73;73.66
66430;BME280;53242;51.694;10.006;2022-12-17T03:45:54;100304.75;;;-6.68;73.24
66430;BME280;53242;51.694;10.006;2022-12-17T03:48:35;100296.28;;;-6.70;73.74
66430;BME280;53242;51.694;10.006;2022-12-17T03:51:16;100299.16;;;-6.57;73.33
66430;BME280;53242;51.694;10.006;2022-12-17T03:53:57;100307.50;;;-6.52;73.41
66430;BME280;53242;51.694;10.006;2022-12-17T03:56:38;100307.81;;;-6.59;72.81
66430;BME280;53242;51.694;10.006;2022-12-17T03:59:18;100314.00;;;-6.64;72.81
66430;BME280;53242;51.694;10.006;2022-12-17T04:01:59;100311.44;;;-6.84;73.12
66430;BME280;53242;51.694;10.006;2022-12-17T04:04:40;100323.06;;;-6.75;72.40
66430;BME280;53242;51.694;10.006;2022-12-17T04:07:21;100312.44;;;-6.88;72.88
66430;BME280;53242;51.694;10.006;2022-12-17T04:10:02;100311.41;;;-7.05;72.71
66430;BME280;53242;51.694;10.006;2022-12-17T04:12:43;100311.03;;;-6.75;73.14
66430;BME280;53242;51.694;10.006;2022-12-17T04:15:24;100313.75;;;-6.78;73.07
66430;BME280;53242;51.694;10.006;2022-12-17T04:18:05;100308.59;;;-6.78;73.29
66430;BME280;53242;51.694;10.006;2022-12-17T04:20:46;100321.63;;;-6.83;74.67
66430;BME280;53242;51.694;10.006;2022-12-17T04:23:31;100319.38;;;-6.70;74.77
66430;BME280;53242;51.694;10.006;2022-12-17T04:26:12;100321.13;;;-6.70;74.20
66430;BME280;53242;51.694;10.006;2022-12-17T04:28:53;100320.00;;;-6.63;73.39
66430;BME280;53242;51.694;10.006;2022-12-17T04:31:34;100324.28;;;-6.64;72.47
66430;BME280;53242;51.694;10.006;2022-12-17T04:34:15;100331.56;;;-6.96;73.36
66430;BME280;53242;51.694;10.006;2022-12-17T04:36:56;100335.03;;;-6.97;73.21
66430;BME280;53242;51.694;10.006;2022-12-17T04:39:37;100323.28;;;-6.82;73.59
66430;BME280;53242;51.694;10.006;2022-12-17T04:42:18;100333.31;;;-6.75;73.73
66430;BME280;53242;51.694;10.006;2022-12-17T04:44:59;100329.47;;;-6.65;72.51
66430;BME280;53242;51.694;10.006;2022-12-17T04:47:39;100322.41;;;-6.81;72.65
66430;BME280;53242;51.694;10.006;2022-12-17T04:50:20;100333.19;;;-6.72;72.27
66430;BME280;53242;51.694;10.006;2022-12-17T04:53:02;100330.63;;;-6.72;72.52
66430;BME280;53242;51.694;10.006;2022-12-17T04:55:44;100328.56;;;-6.85;72.32
66430;BME280;53242;51.694;10.006;2022-12-17T04:58:25;100340.34;;;-7.01;71.99
66430;BME280;53242;51.694;10.006;2022-12-17T05:01:06;100343.56;;;-7.18;73.50
66430;BME280;53242;51.694;10.006;2022-12-17T05:03:46;100340.69;;;-6.88;73.92
66430;BME280;53242;51.694;10.006;2022-12-17T05:06:27;100346.13;;;-6.96;72.75
66430;BME280;53242;51.694;10.006;2022-12-17T05:09:08;100344.84;;;-6.86;72.29
66430;BME280;53242;51.694;10.006;2022-12-17T05:11:49;100351.84;;;-6.89;72.43
66430;BME280;53242;51.694;10.006;2022-12-17T05:14:30;100358.88;;;-6.95;72.02
66430;BME280;53242;51.694;10.006;2022-12-17T05:17:10;100354.28;;;-7.08;71.68
66430;BME280;53242;51.694;10.006;2022-12-17T05:19:51;100361.16;;;-7.09;72.03
66430;BME280;53242;51.694;10.006;2022-12-17T05:22:33;100357.59;;;-7.27;72.78
66430;BME280;53242;51.694;10.006;2022-12-17T05:25:14;100359.78;;;-7.18;71.79
66430;BME280;53242;51.694;10.006;2022-12-17T05:27:55;100369.16;;;-7.39;71.41
66430;BME280;53242;51.694;10.006;2022-12-17T05:30:36;100376.06;;;-7.41;71.23
66430;BME280;53242;51.694;10.006;2022-12-17T05:33:17;100371.06;;;-7.44;71.18
66430;BME280;53242;51.694;10.006;2022-12-17T05:36:00;100381.09;;;-7.38;73.56
66430;BME280;53242;51.694;10.006;2022-12-17T05:38:41;100380.38;;;-7.41;73.02
66430;BME280;53242;51.694;10.006;2022-12-17T05:41:22;100383.19;;;-7.25;72.02
66430;BME280;53242;51.694;10.006;2022-12-17T05:44:02;100384.53;;;-7.39;72.97
66430;BME280;53242;51.694;10.006;2022-12-17T05:46:43;100386.09;;;-7.35;71.77
66430;BME280;53242;51.694;10.006;2022-12-17T05:49:24;100393.91;;;-7.38;71.42
66430;BME280;53242;51.694;10.006;2022-12-17T05:52:05;100389.91;;;-7.45;72.23
66430;BME280;53242;51.694;10.006;2022-12-17T05:54:46;100386.66;;;-7.50;72.81
66430;BME280;53242;51.694;10.006;2022-12-17T05:57:27;100393.34;;;-7.46;72.72
66430;BME280;53242;51.694;10.006;2022-12-17T06:00:08;100387.09;;;-7.63;73.13
66430;BME280;53242;51.694;10.006;2022-12-17T06:02:59;100396.47;;;-7.62;73.50
66430;BME280;53242;51.694;10.006;2022-12-17T06:05:40;100400.22;;;-7.47;72.54
66430;BME280;53242;51.694;10.006;2022-12-17T06:08:21;100404.06;;;-7.58;72.82
66430;BME280;53242;51.694;10.006;2022-12-17T06:11:02;100401.09;;;-7.48;73.11
66430;BME280;53242;51.694;10.006;2022-12-17T06:13:43;100407.53;;;-7.60;73.09
66430;BME280;53242;51.694;10.006;2022-12-17T06:16:24;100401.31;;;-7.54;72.42
66430;BME280;53242;51.694;10.006;2022-12-17T06:19:05;100405.44;;;-7.50;71.76
66430;BME280;53242;51.694;10.006;2022-12-17T06:21:45;100409.53;;;-7.44;71.46
66430;BME280;53242;51.694;10.006;2022-12-17T06:24:26;100414.59;;;-7.43;70.94
66430;BME280;53242;51.694;10.006;2022-12-17T06:27:07;100423.38;;;-7.50;71.60
66430;BME280;53242;51.694;10.006;2022-12-17T06:29:48;100430.53;;;-7.58;71.72
66430;BME280;53242;51.694;10.006;2022-12-17T06:32:29;100434.72;;;-7.55;71.71
66430;BME280;53242;51.694;10.006;2022-12-17T06:35:09;100441.69;;;-7.59;71.09
66430;BME280;53242;51.694;10.006;2022-12-17T06:37:58;100442.53;;;-7.58;71.03
66430;BME280;53242;51.694;10.006;2022-12-17T06:40:39;100441.47;;;-7.78;72.16
66430;BME280;53242;51.694;10.006;2022-12-17T06:43:20;100440.28;;;-7.68;72.17
66430;BME280;53242;51.694;10.006;2022-12-17T06:46:00;100449.56;;;-7.65;73.63
66430;BME280;53242;51.694;10.006;2022-12-17T06:48:41;100451.03;;;-7.82;73.43
66430;BME280;53242;51.694;10.006;2022-12-17T06:51:22;100446.59;;;-7.77;73.29
66430;BME280;53242;51.694;10.006;2022-12-17T06:54:03;100445.47;;;-7.69;73.25
66430;BME280;53242;51.694;10.006;2022-12-17T06:56:44;100447.28;;;-7.73;72.37
66430;BME280;53242;51.694;10.006;2022-12-17T06:59:25;100456.50;;;-7.67;72.29
66430;BME280;53242;51.694;10.006;2022-12-17T07:02:09;100470.41;;;-7.74;71.68
66430;BME280;53242;51.694;10.006;2022-12-17T07:04:50;100463.00;;;-7.82;72.52
66430;BME280;53242;51.694;10.006;2022-12-17T07:07:31;100473.44;;;-7.88;73.43
66430;BME280;53242;51.694;10.006;2022-12-17T07:10:11;100480.31;;;-7.64;73.52
66430;BME280;53242;51.694;10.006;2022-12-17T07:12:52;100479.63;;;-7.69;73.02
66430;BME280;53242;51.694;10.006;2022-12-17T07:15:33;100480.72;;;-7.76;72.38
66430;BME280;53242;51.694;10.006;2022-12-17T07:18:14;100489.69;;;-7.88;73.51
66430;BME280;53242;51.694;10.006;2022-12-17T07:20:55;100500.94;;;-7.94;73.76
66430;BME280;53242;51.694;10.006;2022-12-17T07:23:36;100492.13;;;-7.85;73.83
66430;BME280;53242;51.694;10.006;2022-12-17T07:26:17;100503.59;;;-7.70;73.06
66430;BME280;53242;51.694;10.006;2022-12-17T07:28:58;100510.91;;;-7.59;72.31
66430;BME280;53242;51.694;10.006;2022-12-17T07:31:39;100520.00;;;-7.76;72.85
66430;BME280;53242;51.694;10.006;2022-12-17T07:34:19;100521.63;;;-7.48;71.76
66430;BME280;53242;51.694;10.006;2022-12-17T07:37:00;100528.09;;;-7.63;72.40
66430;BME280;53242;51.694;10.006;2022-12-17T07:39:41;100529.97;;;-7.66;72.53
66430;BME280;53242;51.694;10.006;2022-12-17T07:42:22;100533.53;;;-7.72;71.98
66430;BME280;53242;51.694;10.006;2022-12-17T07:45:04;100539.56;;;-7.73;71.99
66430;BME280;53242;51.694;10.006;2022-12-17T07:47:52;100533.09;;;-7.58;71.96
66430;BME280;53242;51.694;10.006;2022-12-17T07:50:33;100534.16;;;-7.65;71.67
66430;BME280;53242;51.694;10.006;2022-12-17T07:53:13;100531.72;;;-7.68;71.54
66430;BME280;53242;51.694;10.006;2022-12-17T07:55:54;100533.81;;;-7.54;71.85
66430;BME280;53242;51.694;10.006;2022-12-17T07:58:35;100540.56;;;-7.52;71.76
66430;BME280;53242;51.694;10.006;2022-12-17T08:01:16;100537.47;;;-7.62;71.73
66430;BME280;53242;51.694;10.006;2022-12-17T08:03:56;100540.78;;;-7.58;71.86
66430;BME280;53242;51.694;10.006;2022-12-17T08:06:37;100539.00;;;-7.56;71.47
66430;BME280;53242;51.694;10.006;2022-12-17T08:09:18;100553.31;;;-7.50;71.49
66430;BME280;53242;51.694;10.006;2022-12-17T08:11:59;100562.09;;;-7.57;71.20
66430;BME280;53242;51.694;10.006;2022-12-17T08:14:40;100562.50;;;-7.43;71.09
66430;BME280;53242;51.694;10.006;2022-12-17T08:17:20;100565.22;;;-7.48;71.51
66430;BME280;53242;51.694;10.006;2022-12-17T08:20:01;100581.47;;;-7.49;71.16
66430;BME280;53242;51.694;10.006;2022-12-17T08:22:42;100579.84;;;-7.51;71.39
66430;BME280;53242;51.694;10.006;2022-12-17T08:25:23;100582.88;;;-7.40;71.33
66430;BME280;53242;51.694;10.006;2022-12-17T08:28:04;100580.59;;;-7.48;71.98
66430;BME280;53242;51.694;10.006;2022-12-17T08:30:48;100583.63;;;-7.62;72.19
66430;BME280;53242;51.694;10.006;2022-12-17T08:33:29;100576.81;;;-7.63;72.03
66430;BME280;53242;51.694;10.006;2022-12-17T08:36:10;100579.59;;;-7.69;72.06
66430;BME280;53242;51.694;10.006;2022-12-17T08:38:51;100578.16;;;-7.52;71.54
66430;BME280;53242;51.694;10.006;2022-12-17T08:41:42;100588.28;;;-7.48;71.24
66430;BME280;53242;51.694;10.006;2022-12-17T08:44:23;100584.78;;;-7.45;71.55
66430;BME280;53242;51.694;10.006;2022-12-17T08:47:04;100595.25;;;-7.51;71.66
66430;BME280;53242;51.694;10.006;2022-12-17T08:49:45;100594.50;;;-7.55;71.71
66430;BME280;53242;51.694;10.006;2022-12-17T08:52:26;100595.16;;;-7.48;71.74
66430;BME280;53242;51.694;10.006;2022-12-17T08:55:07;100601.38;;;-7.30;71.25
66430;BME280;53242;51.694;10.006;2022-12-17T08:57:55;100599.84;;;-7.36;71.05
66430;BME280;53242;51.694;10.006;2022-12-17T09:00:36;100605.78;;;-7.34;70.52
66430;BME280;53242;51.694;10.006;2022-12-17T09:03:17;100596.75;;;-7.20;70.30
66430;BME280;53242;51.694;10.006;2022-12-17T09:05:57;100604.34;;;-7.17;70.56
66430;BME280;53242;51.694;10.006;2022-12-17T09:08:38;100606.66;;;-7.09;70.44
66430;BME280;53242;51.694;10.006;2022-12-17T09:11:39;100609.97;;;-7.07;70.79
66430;BME280;53242;51.694;10.006;2022-12-17T09:14:21;100612.72;;;-7.12;70.36
66430;BME280;53242;51.694;10.006;2022-12-17T09:17:02;100603.03;;;-7.04;70.04
66430;BME280;53242;51.694;10.006;2022-12-17T09:19:43;100617.19;;;-6.94;69.87
66430;BME280;53242;51.694;10.006;2022-12-17T09:22:23;100618.09;;;-6.95;69.80
66430;BME280;53242;51.694;10.006;2022-12-17T09:25:05;100619.63;;;-6.89;70.56
66430;BME280;53242;51.694;10.006;2022-12-17T09:27:46;100614.63;;;-6.94;71.31
66430;BME280;53242;51.694;10.006;2022-12-17T09:30:26;100613.00;;;-6.72;70.83
66430;BME280;53242;51.694;10.006;2022-12-17T09:33:07;100614.63;;;-6.70;71.59
66430;BME280;53242;51.694;10.006;2022-12-17T09:35:53;100621.94;;;-6.59;70.72
66430;BME280;53242;51.694;10.006;2022-12-17T09:38:34;100611.56;;;-6.56;72.30
66430;BME280;53242;51.694;10.006;2022-12-17T09:41:27;100615.16;;;-6.38;71.69
66430;BME280;53242;51.694;10.006;2022-12-17T09:44:32;100622.19;;;-6.43;72.41
66430;BME280;53242;51.694;10.006;2022-12-17T09:50:25;100623.47;;;-6.77;72.51
66430;BME280;53242;51.694;10.006;2022-12-17T09:53:19;100631.03;;;-6.74;74.07
66430;BME280;53242;51.694;10.006;2022-12-17T09:56:01;100625.41;;;-6.60;74.66
66430;BME280;53242;51.694;10.006;2022-12-17T09:58:43;100623.34;;;-6.50;74.41
66430;BME280;53242;51.694;10.006;2022-12-17T10:01:27;100617.13;;;-6.45;74.03
66430;BME280;53242;51.694;10.006;2022-12-17T10:04:15;100618.44;;;-6.56;74.14
66430;BME280;53242;51.694;10.006;2022-12-17T10:06:57;100622.28;;;-6.68;74.84
66430;BME280;53242;51.694;10.006;2022-12-17T10:09:40;100626.50;;;-6.43;75.15
66430;BME280;53242;51.694;10.006;2022-12-17T10:12:20;100632.69;;;-6.49;75.18
66430;BME280;53242;51.694;10.006;2022-12-17T10:15:02;100635.13;;;-6.68;75.89
66430;BME280;53242;51.694;10.006;2022-12-17T10:17:43;100638.66;;;-6.71;76.16
66430;BME280;53242;51.694;10.006;2022-12-17T10:20:44;100642.38;;;-6.56;75.95
66430;BME280;53242;51.694;10.006;2022-12-17T10:23:30;100641.56;;;-6.34;75.73
66430;BME280;53242;51.694;10.006;2022-12-17T10:26:21;100634.44;;;-6.04;74.85
66430;BME280;53242;51.694;10.006;2022-12-17T10:29:04;100635.34;;;-5.84;74.04
66430;BME280;53242;51.694;10.006;2022-12-17T10:31:45;100639.00;;;-5.68;73.51
66430;BME280;53242;51.694;10.006;2022-12-17T10:34:26;100634.41;;;-5.61;73.62
66430;BME280;53242;51.694;10.006;2022-12-17T10:37:17;100634.13;;;-5.33;72.07
66430;BME280;53242;51.694;10.006;2022-12-17T10:40:18;100623.44;;;-5.23;72.06
66430;BME280;53242;51.694;10.006;2022-12-17T10:46:07;100627.94;;;-5.08;71.70
66430;BME280;53242;51.694;10.006;2022-12-17T10:48:48;100637.41;;;-5.08;71.55
66430;BME280;53242;51.694;10.006;2022-12-17T10:51:34;100638.53;;;-4.95;71.93
66430;BME280;53242;51.694;10.006;2022-12-17T10:54:41;100642.66;;;-4.72;71.81
66430;BME280;53242;51.694;10.006;2022-12-17T10:57:30;100645.31;;;-4.73;70.99
66430;BME280;53242;51.694;10.006;2022-12-17T11:00:23;100647.41;;;-4.82;71.63
66430;BME280;53242;51.694;10.006;2022-12-17T11:03:04;100652.09;;;-4.91;72.10
66430;BME280;53242;51.694;10.006;2022-12-17T11:05:48;100651.13;;;-4.89;72.51
66430;BME280;53242;51.694;10.006;2022-12-17T11:08:31;100645.13;;;-4.69;72.73
66430;BME280;53242;51.694;10.006;2022-12-17T11:11:13;100642.88;;;-4.57;72.31
66430;BME280;53242;51.694;10.006;2022-12-17T11:13:55;100643.66;;;-4.55;72.30
66430;BME280;53242;51.694;10.006;2022-12-17T11:16:43;100644.50;;;-4.36;71.61
66430;BME280;53242;51.694;10.006;2022-12-17T11:19:36;100648.03;;;-4.19;70.87
66430;BME280;53242;51.694;10.006;2022-12-17T11:25:53;100652.03;;;-4.31;71.67
66430;BME280;53242;51.694;10.006;2022-12-17T11:28:36;100649.22;;;-4.07;71.01
66430;BME280;53242;51.694;10.006;2022-12-17T11:37:19;100648.31;;;-4.06;71.62
66430;BME280;53242;51.694;10.006;2022-12-17T11:40:22;100645.38;;;-3.99;71.80
66430;BME280;53242;51.694;10.006;2022-12-17T11:43:16;100640.00;;;-3.94;72.13
66430;BME280;53242;51.694;10.006;2022-12-17T11:46:06;100645.47;;;-3.83;71.85
66430;BME280;53242;51.694;10.006;2022-12-17T11:48:56;100649.22;;;-3.71;71.48
66430;BME280;53242;51.694;10.006;2022-12-17T11:51:52;100650.38;;;-3.59;71.34
66430;BME280;53242;51.694;10.006;2022-12-17T12:00:23;100626.59;;;-3.48;71.82
66430;BME280;53242;51.694;10.006;2022-12-17T12:03:31;100634.56;;;-3.35;71.67
66430;BME280;53242;51.694;10.006;2022-12-17T12:06:23;100627.72;;;-3.36;71.23
66430;BME280;53242;51.694;10.006;2022-12-17T12:09:16;100631.53;;;-3.43;71.55
66430;BME280;53242;51.694;10.006;2022-12-17T12:18:09;100634.94;;;-3.43;72.00
66430;BME280;53242;51.694;10.006;2022-12-17T12:21:04;100647.63;;;-3.38;72.25
66430;BME280;53242;51.694;10.006;2022-12-17T12:30:22;100640.97;;;-2.91;70.93
66430;BME280;53242;51.694;10.006;2022-12-17T12:35:59;100633.81;;;-2.86;70.84
66430;BME280;53242;51.694;10.006;2022-12-17T12:38:43;100634.28;;;-2.95;71.22
66430;BME280;53242;51.694;10.006;2022-12-17T12:44:29;100634.59;;;-2.84;70.76
66430;BME280;53242;51.694;10.006;2022-12-17T12:47:13;100637.59;;;-2.76;71.20
66430;BME280;53242;51.694;10.006;2022-12-17T12:50:11;100640.44;;;-2.81;72.56
66430;BME280;53242;51.694;10.006;2022-12-17T12:52:56;100638.50;;;-2.77;72.61
66430;BME280;53242;51.694;10.006;2022-12-17T12:55:41;100650.69;;;-2.97;72.82
66430;BME280;53242;51.694;10.006;2022-12-17T12:58:28;100646.81;;;-2.88;72.78
66430;BME280;53242;51.694;10.006;2022-12-17T13:01:09;100652.75;;;-2.86;72.29
66430;BME280;53242;51.694;10.006;2022-12-17T13:03:52;100656.28;;;-2.71;72.05
66430;BME280;53242;51.694;10.006;2022-12-17T13:06:52;100648.69;;;-2.74;72.46
66430;BME280;53242;51.694;10.006;2022-12-17T13:14:15;100657.03;;;-2.53;72.37
66430;BME280;53242;51.694;10.006;2022-12-17T13:21:52;100647.19;;;-2.62;72.54
66430;BME280;53242;51.694;10.006;2022-12-17T13:24:24;100651.28;;;-2.58;72.46
66430;BME280;53242;51.694;10.006;2022-12-17T13:26:47;100655.53;;;-2.57;72.19
66430;BME280;53242;51.694;10.006;2022-12-17T13:29:27;100647.88;;;-2.58;72.46
66430;BME280;53242;51.694;10.006;2022-12-17T13:37:02;100656.91;;;-2.50;72.13
66430;BME280;53242;51.694;10.006;2022-12-17T13:39:33;100652.25;;;-2.43;72.00
66430;BME280;53242;51.694;10.006;2022-12-17T13:41:57;100660.50;;;-2.36;71.93
66430;BME280;53242;51.694;10.006;2022-12-17T13:44:34;100668.00;;;-2.32;71.84
66430;BME280;53242;51.694;10.006;2022-12-17T13:46:59;100663.56;;;-2.29;71.87
66430;BME280;53242;51.694;10.006;2022-12-17T13:49:24;100668.16;;;-2.35;72.27
66430;BME280;53242;51.694;10.006;2022-12-17T13:51:47;100658.41;;;-2.29;72.11
66430;BME280;53242;51.694;10.006;2022-12-17T13:54:18;100664.00;;;-2.37;72.43
66430;BME280;53242;51.694;10.006;2022-12-17T13:56:41;100661.06;;;-2.31;71.61
66430;BME280;53242;51.694;10.006;2022-12-17T13:59:04;100665.44;;;-2.32;71.97
66430;BME280;53242;51.694;10.006;2022-12-17T14:01:27;100663.75;;;-2.33;71.88
66430;BME280;53242;51.694;10.006;2022-12-17T14:04:00;100657.66;;;-2.32;71.51
66430;BME280;53242;51.694;10.006;2022-12-17T14:06:25;100661.66;;;-2.42;71.43
66430;BME280;53242;51.694;10.006;2022-12-17T14:08:51;100661.56;;;-2.40;71.72
66430;BME280;53242;51.694;10.006;2022-12-17T14:11:15;100659.81;;;-2.40;72.33
66430;BME280;53242;51.694;10.006;2022-12-17T14:13:56;100672.69;;;-2.38;71.99
66430;BME280;53242;51.694;10.006;2022-12-17T14:16:20;100667.75;;;-2.43;72.12
66430;BME280;53242;51.694;10.006;2022-12-17T14:18:50;100670.84;;;-2.36;71.84
66430;BME280;53242;51.694;10.006;2022-12-17T14:21:13;100671.25;;;-2.44;71.99
66430;BME280;53242;51.694;10.006;2022-12-17T14:23:36;100672.41;;;-2.34;71.66
66430;BME280;53242;51.694;10.006;2022-12-17T14:25:58;100670.59;;;-2.32;71.36
66430;BME280;53242;51.694;10.006;2022-12-17T14:30:46;100683.34;;;-2.28;72.64
66430;BME280;53242;51.694;10.006;2022-12-17T14:33:30;100680.75;;;-2.28;72.66
66430;BME280;53242;51.694;10.006;2022-12-17T14:35:54;100685.53;;;-2.37;73.19
66430;BME280;53242;51.694;10.006;2022-12-17T14:38:17;100685.66;;;-2.56;72.47
66430;BME280;53242;51.694;10.006;2022-12-17T14:40:40;100687.72;;;-2.62;73.04
66430;BME280;53242;51.694;10.006;2022-12-17T14:43:02;100691.00;;;-2.59;72.97
66430;BME280;53242;51.694;10.006;2022-12-17T14:45:27;100692.59;;;-2.56;73.41
66430;BME280;53242;51.694;10.006;2022-12-17T14:48:00;100700.75;;;-2.64;72.80
66430;BME280;53242;51.694;10.006;2022-12-17T14:50:33;100694.72;;;-2.65;72.87
66430;BME280;53242;51.694;10.006;2022-12-17T14:52:58;100697.47;;;-2.68;72.87